Time;durP1;ratioP1;P1;durP2;ratioP2;P2;SDS_P1;SDS_P2;PMS_P1;PMS_P2;Temp;Humidity;BMP_temperature;BMP_pressure;BME280_temperature;BME280_humidity;BME280_pressure;Samples;Min_cycle;Max_cycle;Signal;HPM_P1;HPM_P2
2021/03/13 00:00:36;;;;;;;14.73;5.40;;;4.60;74.40;;;;;;5029116;28;19959;-70
2021/03/13 00:03:02;;;;;;;;;;;4.50;73.70;;;;;;5028981;28;20036;-70
2021/03/13 00:05:33;;;;;;;13.25;6.13;;;4.50;73.90;;;;;;5028856;28;19916;-71
2021/03/13 00:07:59;;;;;;;13.75;5.85;;;4.50;73.80;;;;;;5029107;28;20276;-69
2021/03/13 00:10:25;;;;;;;;;;;4.50;73.90;;;;;;5029026;28;20553;-70
2021/03/13 00:12:51;;;;;;;15.32;5.63;;;4.40;74.10;;;;;;5027607;28;19913;-70
2021/03/13 00:15:18;;;;;;;12.25;5.93;;;4.40;74.30;;;;;;5029033;28;20403;-70
2021/03/13 00:17:45;;;;;;;15.65;5.95;;;4.30;74.50;;;;;;5028038;28;20061;-68
2021/03/13 00:20:13;;;;;;;15.68;6.07;;;4.30;74.80;;;;;;5027319;28;20030;-71
2021/03/13 00:22:39;;;;;;;16.42;6.65;;;4.30;75.00;;;;;;5028959;28;20029;-70
2021/03/13 00:25:06;;;;;;;;;;;4.30;75.00;;;;;;5028934;28;20108;-70
2021/03/13 00:27:31;;;;;;;8.88;3.67;;;4.30;75.00;;;;;;5027308;28;19944;-69
2021/03/13 00:29:57;;;;;;;;;;;4.30;75.70;;;;;;5029211;28;20083;-70
2021/03/13 00:32:23;;;;;;;9.00;2.97;;;4.30;74.70;;;;;;5026227;28;19905;-70
2021/03/13 00:34:49;;;;;;;;;;;4.30;74.80;;;;;;5028930;28;20033;-71
2021/03/13 00:37:15;;;;;;;4.47;2.05;;;4.20;75.40;;;;;;5028212;28;19913;-70
2021/03/13 00:39:40;;;;;;;8.75;3.60;;;4.20;75.20;;;;;;5028450;28;20022;-70
2021/03/13 00:42:06;;;;;;;;;;;4.20;75.30;;;;;;5028844;28;20041;-70
2021/03/13 00:44:32;;;;;;;17.30;7.80;;;4.20;75.50;;;;;;5027911;28;20418;-71
2021/03/13 00:46:57;;;;;;;;;;;4.10;75.90;;;;;;5028266;28;20051;-70
2021/03/13 00:49:23;;;;;;;12.25;6.10;;;4.10;76.10;;;;;;5028166;28;19917;-70
2021/03/13 00:51:49;;;;;;;10.77;5.32;;;4.10;76.00;;;;;;5028005;28;20030;-70
2021/03/13 00:54:14;;;;;;;;;;;4.10;76.00;;;;;;5027646;28;20078;-70
2021/03/13 00:56:40;;;;;;;9.43;4.63;;;4.10;75.90;;;;;;5028232;28;20219;-70
2021/03/13 00:59:06;;;;;;;9.65;4.57;;;4.10;75.90;;;;;;5027957;28;20040;-70
2021/03/13 01:01:31;;;;;;;8.73;3.60;;;4.10;75.90;;;;;;5026066;28;20516;-70
2021/03/13 01:03:57;;;;;;;8.52;3.13;;;4.10;76.10;;;;;;5027798;28;20401;-70
2021/03/13 01:06:23;;;;;;;8.13;3.45;;;4.10;76.00;;;;;;5028080;28;20040;-71
2021/03/13 01:08:48;;;;;;;;;;;4.10;76.10;;;;;;5028325;28;20501;-70
2021/03/13 01:11:14;;;;;;;6.38;3.47;;;4.00;76.20;;;;;;5026569;28;20011;-70
2021/03/13 01:13:39;;;;;;;;;;;4.00;76.30;;;;;;5026431;28;20021;-70
2021/03/13 01:16:05;;;;;;;14.75;4.72;;;3.90;77.00;;;;;;5027444;28;19944;-70
2021/03/13 01:18:31;;;;;;;;;;;3.80;77.20;;;;;;5026550;28;20183;-70
2021/03/13 01:20:56;;;;;;;14.30;6.50;;;3.80;77.60;;;;;;5027569;28;19905;-70
2021/03/13 01:23:22;;;;;;;20.08;8.55;;;3.70;77.40;;;;;;5026329;28;20444;-70
2021/03/13 01:25:47;;;;;;;18.98;8.77;;;3.70;77.60;;;;;;5027365;28;20402;-68
2021/03/13 01:28:13;;;;;;;;;;;3.60;77.80;;;;;;5026734;28;20056;-71
2021/03/13 01:30:41;;;;;;;16.30;8.02;;;3.50;78.50;;;;;;5027167;28;20000;-70
2021/03/13 01:33:07;;;;;;;25.38;9.27;;;3.40;78.70;;;;;;5026941;28;20028;-69
2021/03/13 01:35:32;;;;;;;;;;;3.40;78.60;;;;;;5028038;28;20033;-70
2021/03/13 01:37:58;;;;;;;24.73;10.00;;;3.40;79.10;;;;;;5027350;28;19921;-70
2021/03/13 01:40:23;;;;;;;;;;;3.40;78.90;;;;;;5026499;28;20176;-71
2021/03/13 01:42:50;;;;;;;26.27;11.30;;;3.30;79.20;;;;;;5026844;28;20295;-70
2021/03/13 01:45:17;;;;;;;;;;;3.30;79.30;;;;;;5026225;28;20040;-71
2021/03/13 01:47:43;;;;;;;29.45;13.63;;;3.20;79.60;;;;;;5027302;28;19901;-70
2021/03/13 01:50:11;;;;;;;31.92;13.73;;;3.10;79.40;;;;;;5027028;28;20513;-70
2021/03/13 01:52:36;;;;;;;21.88;10.57;;;3.10;79.60;;;;;;5025687;28;20112;-70
2021/03/13 01:55:03;;;;;;;;;;;3.10;80.10;;;;;;5027481;28;20121;-70
2021/03/13 01:57:29;;;;;;;19.63;9.67;;;3.00;80.40;;;;;;5025556;28;20409;-70
2021/03/13 01:59:55;;;;;;;21.05;10.07;;;3.00;80.70;;;;;;5025157;28;20064;-71
2021/03/13 02:02:22;;;;;;;17.45;9.38;;;3.00;80.60;;;;;;5026652;28;20639;-70
2021/03/13 02:04:48;;;;;;;17.13;7.97;;;3.00;80.80;;;;;;5026529;28;20431;-69
2021/03/13 02:07:19;;;;;;;;;;;3.00;81.00;;;;;;5027415;28;20494;-70
2021/03/13 02:10:12;;;;;;;16.58;7.70;;;2.90;81.40;;;;;;5025680;28;19909;-72
2021/03/13 02:12:52;;;;;;;12.15;6.22;;;3.00;81.30;;;;;;5025201;28;20060;-70
2021/03/13 02:16:00;;;;;;;17.73;7.13;;;3.00;81.10;;;;;;5026186;28;20543;-70
2021/03/13 02:18:44;;;;;;;13.13;6.55;;;3.00;81.40;;;;;;5014223;28;20061;-70
2021/03/13 02:21:21;;;;;;;19.88;7.40;;;2.80;81.10;;;;;;5026360;28;20061;-69
2021/03/13 02:24:23;;;;;;;15.50;6.97;;;2.90;81.50;;;;;;5026753;28;20033;-70
2021/03/13 02:27:12;;;;;;;13.48;6.50;;;2.80;81.40;;;;;;5025247;28;20052;-69
2021/03/13 02:30:06;;;;;;;12.80;5.15;;;2.80;81.70;;;;;;5026318;28;20037;-73
2021/03/13 02:32:54;;;;;;;11.50;6.03;;;2.80;81.70;;;;;;5026607;28;20047;-70
2021/03/13 02:35:27;;;;;;;13.23;5.53;;;2.80;81.90;;;;;;5026393;28;20498;-68
2021/03/13 02:37:57;;;;;;;16.60;6.18;;;2.70;81.90;;;;;;5026421;28;20048;-68
2021/03/13 02:40:27;;;;;;;19.92;5.90;;;2.70;82.00;;;;;;5025134;28;20022;-73
2021/03/13 02:42:55;;;;;;;9.40;4.82;;;2.70;81.80;;;;;;5024798;28;20033;-70
2021/03/13 02:45:27;;;;;;;33.55;12.35;;;2.60;81.90;;;;;;5026011;28;20388;-70
2021/03/13 02:47:53;;;;;;;29.80;13.50;;;2.50;82.20;;;;;;5026074;28;20036;-70
2021/03/13 02:50:20;;;;;;;30.77;12.85;;;2.40;82.60;;;;;;5026304;28;20678;-69
2021/03/13 02:52:50;;;;;;;24.48;10.35;;;2.40;82.50;;;;;;5026078;28;20033;-69
2021/03/13 02:55:16;;;;;;;14.75;7.00;;;2.40;83.00;;;;;;5026192;28;20120;-68
2021/03/13 02:57:45;;;;;;;10.95;5.20;;;2.40;83.10;;;;;;5030375;28;20608;-69
2021/03/13 03:00:15;;;;;;;10.57;4.68;;;2.40;83.20;;;;;;5029864;28;20076;-70
2021/03/13 03:02:45;;;;;;;9.93;4.18;;;2.40;84.10;;;;;;5028503;28;20033;-70
2021/03/13 03:05:11;;;;;;;12.25;5.82;;;2.40;83.60;;;;;;5028930;28;20367;-69
2021/03/13 03:07:37;;;;;;;11.60;4.75;;;2.40;83.70;;;;;;5029912;28;20025;-69
2021/03/13 03:10:07;;;;;;;10.10;4.75;;;2.30;83.80;;;;;;5028631;28;20025;-70
2021/03/13 03:12:33;;;;;;;9.45;4.30;;;2.30;83.90;;;;;;5029771;28;20025;-70
2021/03/13 03:15:00;;;;;;;11.57;5.38;;;2.30;84.20;;;;;;5027998;28;20021;-69
2021/03/13 03:17:27;;;;;;;11.32;5.45;;;2.30;84.80;;;;;;5029992;28;20461;-70
2021/03/13 03:19:54;;;;;;;10.00;4.93;;;2.30;84.90;;;;;;5028582;28;20100;-70
2021/03/13 03:22:21;;;;;;;10.07;5.00;;;2.40;85.00;;;;;;5028664;28;20022;-70
2021/03/13 03:24:47;;;;;;;11.10;4.30;;;2.40;85.00;;;;;;5029736;28;20628;-69
2021/03/13 03:27:13;;;;;;;12.90;5.07;;;2.30;84.70;;;;;;5029907;28;20120;-70
2021/03/13 03:29:39;;;;;;;;;;;2.30;84.90;;;;;;5029624;28;20160;-70
2021/03/13 03:32:05;;;;;;;7.60;3.60;;;2.20;84.60;;;;;;5029725;28;19985;-70
2021/03/13 03:34:30;;;;;;;;;;;2.20;84.40;;;;;;5030198;28;20081;-68
2021/03/13 03:36:56;;;;;;;8.80;3.72;;;2.10;84.40;;;;;;5027278;28;19913;-70
2021/03/13 03:39:22;;;;;;;;;;;2.00;84.10;;;;;;5029765;28;20029;-69
2021/03/13 03:41:51;;;;;;;10.85;5.10;;;2.00;84.10;;;;;;5029617;28;19916;-69
2021/03/13 03:44:26;;;;;;;10.25;5.18;;;1.90;84.40;;;;;;5027366;28;20033;-69
2021/03/13 03:46:58;;;;;;;11.50;4.72;;;1.90;84.50;;;;;;5027858;28;20119;-70
2021/03/13 03:49:24;;;;;;;9.60;4.07;;;1.80;84.70;;;;;;5029297;28;20053;-70
2021/03/13 03:51:53;;;;;;;11.27;4.70;;;1.80;85.00;;;;;;5027626;28;20565;-69
2021/03/13 03:54:20;;;;;;;17.95;8.40;;;1.70;84.80;;;;;;5027923;28;20044;-70
2021/03/13 03:56:47;;;;;;;27.55;12.05;;;1.60;84.70;;;;;;5029003;28;20696;-69
2021/03/13 03:59:18;;;;;;;27.27;14.15;;;1.50;85.10;;;;;;5028607;28;20037;-70
2021/03/13 04:01:47;;;;;;;27.30;15.27;;;1.50;85.30;;;;;;5028875;28;20037;-68
2021/03/13 04:04:15;;;;;;;35.20;14.38;;;1.40;86.00;;;;;;5027867;28;20041;-69
2021/03/13 04:06:42;;;;;;;18.55;8.40;;;1.40;86.40;;;;;;5026899;28;20032;-69
2021/03/13 04:09:09;;;;;;;14.05;6.82;;;1.40;86.20;;;;;;5028726;28;20446;-69
2021/03/13 04:11:37;;;;;;;13.30;6.60;;;1.40;87.60;;;;;;5027701;28;20057;-70
2021/03/13 04:14:03;;;;;;;16.98;6.80;;;1.40;87.90;;;;;;5028910;28;20498;-70
2021/03/13 04:16:30;;;;;;;18.35;7.80;;;1.30;87.60;;;;;;5029097;28;20032;-69
2021/03/13 04:18:57;;;;;;;19.40;7.57;;;1.30;88.10;;;;;;5027068;28;20029;-70
2021/03/13 04:21:23;;;;;;;18.10;7.40;;;1.20;87.90;;;;;;5028624;28;20033;-69
2021/03/13 04:23:49;;;;;;;;;;;1.20;87.70;;;;;;5028688;28;20091;-70
2021/03/13 04:26:16;;;;;;;25.05;11.18;;;1.20;87.40;;;;;;5028874;28;19996;-70
2021/03/13 04:28:47;;;;;;;30.52;13.23;;;1.10;87.40;;;;;;5027927;28;20029;-70
2021/03/13 04:31:13;;;;;;;29.48;13.98;;;1.00;87.40;;;;;;5028774;28;20056;-70
2021/03/13 04:33:41;;;;;;;30.25;12.93;;;1.00;87.60;;;;;;5027003;28;20413;-68
2021/03/13 04:36:08;;;;;;;27.83;14.18;;;1.00;88.70;;;;;;5028793;28;20029;-69
2021/03/13 04:38:36;;;;;;;28.13;15.43;;;0.90;89.00;;;;;;5028516;28;20593;-70
2021/03/13 04:41:02;;;;;;;34.63;19.52;;;0.90;88.80;;;;;;5027788;28;20028;-70
2021/03/13 04:43:28;;;;;;;38.72;24.65;;;1.00;89.20;;;;;;5028094;28;20485;-70
2021/03/13 04:46:00;;;;;;;;;;;1.00;89.60;;;;;;5027285;28;20478;-70
2021/03/13 04:48:27;;;;;;;46.63;34.08;;;1.00;89.80;;;;;;5027927;28;19932;-69
2021/03/13 04:50:57;;;;;;;46.38;30.27;;;1.00;90.00;;;;;;5027810;28;20041;-69
2021/03/13 04:53:23;;;;;;;38.10;22.77;;;1.10;90.50;;;;;;5026562;28;20099;-69
2021/03/13 04:55:48;;;;;;;;;;;1.20;90.60;;;;;;5028955;28;20038;-68
2021/03/13 04:58:14;;;;;;;20.15;9.75;;;1.40;91.00;;;;;;5027553;28;19913;-70
2021/03/13 05:00:39;;;;;;;;;;;1.50;91.10;;;;;;5027299;28;20032;-67
2021/03/13 05:03:05;;;;;;;18.75;7.32;;;1.60;90.70;;;;;;5027608;28;20006;-70
2021/03/13 05:05:33;;;;;;;;;;;1.60;90.40;;;;;;5028661;28;20048;-70
2021/03/13 05:08:00;;;;;;;24.58;11.85;;;1.60;90.20;;;;;;5026750;28;19996;-69
2021/03/13 05:10:26;;;;;;;28.63;14.30;;;1.70;89.80;;;;;;5026620;28;20033;-70
2021/03/13 05:12:52;;;;;;;38.80;15.57;;;1.60;89.20;;;;;;5027339;28;20509;-70
2021/03/13 05:15:19;;;;;;;;;;;1.60;88.70;;;;;;5028048;28;20032;-69
2021/03/13 05:17:44;;;;;;;85.77;42.60;;;1.60;89.60;;;;;;5027205;28;19947;-70
2021/03/13 05:20:10;;;;;;;;;;;1.60;89.90;;;;;;5025879;28;20306;-70
2021/03/13 05:22:35;;;;;;;44.95;21.45;;;1.60;89.80;;;;;;5027759;28;19905;-69
2021/03/13 05:25:01;;;;;;;;;;;1.70;89.70;;;;;;5027594;28;20398;-69
2021/03/13 05:27:27;;;;;;;26.35;11.68;;;1.70;89.10;;;;;;5026341;28;20577;-70
2021/03/13 05:29:52;;;;;;;;;;;1.70;88.40;;;;;;5027417;28;20034;-71
2021/03/13 05:32:18;;;;;;;31.63;13.82;;;1.70;88.20;;;;;;5027292;28;19963;-70
2021/03/13 05:34:43;;;;;;;;;;;1.70;88.10;;;;;;5028113;28;20070;-69
2021/03/13 05:37:09;;;;;;;23.95;12.10;;;1.80;87.70;;;;;;5027180;28;20468;-70
2021/03/13 05:39:35;;;;;;;;;;;1.80;87.60;;;;;;5028174;28;20537;-68
2021/03/13 05:42:02;;;;;;;36.67;15.43;;;1.80;87.50;;;;;;5027369;28;20047;-70
2021/03/13 05:44:28;;;;;;;28.42;15.13;;;1.90;87.50;;;;;;5025525;28;20108;-69
2021/03/13 05:46:54;;;;;;;;;;;1.90;87.40;;;;;;5027177;28;20141;-70
2021/03/13 05:49:22;;;;;;;28.30;15.13;;;2.00;87.30;;;;;;5027223;28;19921;-70
2021/03/13 05:51:48;;;;;;;40.95;23.38;;;2.10;87.30;;;;;;5027143;28;20531;-69
2021/03/13 05:54:15;;;;;;;40.63;22.10;;;2.20;86.60;;;;;;5027329;28;20120;-69
2021/03/13 05:56:41;;;;;;;36.83;20.08;;;2.30;86.50;;;;;;5026834;28;20037;-69
2021/03/13 05:59:09;;;;;;;;;;;2.50;86.30;;;;;;5026766;28;20064;-69
2021/03/13 06:01:35;;;;;;;23.90;13.45;;;2.90;86.00;;;;;;5026659;28;20484;-70
2021/03/13 06:04:00;;;;;;;;;;;3.30;84.70;;;;;;5026073;28;20045;-69
2021/03/13 06:06:26;;;;;;;29.50;13.20;;;3.70;83.30;;;;;;5025312;28;19984;-70
2021/03/13 06:08:53;;;;;;;;;;;4.10;82.10;;;;;;5027141;28;20105;-70
2021/03/13 06:11:21;;;;;;;21.02;9.05;;;4.50;80.00;;;;;;5027043;28;20437;-69
2021/03/13 06:13:48;;;;;;;18.25;9.40;;;4.80;79.10;;;;;;5026351;28;20067;-70
2021/03/13 06:16:13;;;;;;;19.40;9.07;;;5.20;77.60;;;;;;5026813;28;20032;-70
2021/03/13 06:18:48;;;;;;;;;;;5.60;77.00;;;;;;5026872;28;20041;-69
2021/03/13 06:21:30;;;;;;;20.38;11.27;;;5.90;75.30;;;;;;5026721;28;19905;-69
2021/03/13 06:24:01;;;;;;;19.48;11.27;;;6.30;73.80;;;;;;5026345;28;20052;-69
2021/03/13 06:26:28;;;;;;;19.48;9.27;;;6.80;72.80;;;;;;5026680;28;20026;-69
2021/03/13 06:28:56;;;;;;;24.17;11.45;;;7.40;71.50;;;;;;5026154;28;20029;-69
2021/03/13 06:31:27;;;;;;;25.63;11.15;;;8.00;69.40;;;;;;5024953;28;20080;-72
2021/03/13 06:33:54;;;;;;;36.30;19.63;;;8.50;66.60;;;;;;5025372;28;20029;-69
2021/03/13 06:36:25;;;;;;;50.33;27.40;;;9.10;65.10;;;;;;5025311;28;20025;-70
2021/03/13 06:38:52;;;;;;;41.47;23.42;;;9.70;63.30;;;;;;5025279;28;20041;-68
2021/03/13 06:41:23;;;;;;;28.23;13.63;;;10.30;61.70;;;;;;5026564;28;20038;-70
2021/03/13 06:43:51;;;;;;;24.35;13.75;;;11.00;59.30;;;;;;5025973;28;20091;-70
2021/03/13 06:46:20;;;;;;;17.08;7.70;;;11.50;57.80;;;;;;5025950;28;20502;-70
2021/03/13 06:48:57;;;;;;;10.35;6.05;;;12.20;56.40;;;;;;5024956;28;20041;-70
2021/03/13 06:51:39;;;;;;;8.57;4.43;;;12.90;54.20;;;;;;5025046;28;20077;-70
2021/03/13 06:54:11;;;;;;;12.23;4.70;;;13.70;52.40;;;;;;5025007;28;20035;-71
2021/03/13 06:56:39;;;;;;;11.52;4.32;;;14.40;50.20;;;;;;5026014;28;20060;-70
2021/03/13 06:59:17;;;;;;;7.60;4.18;;;14.80;48.80;;;;;;5025848;28;20036;-70
2021/03/13 07:01:43;;;;;;;7.30;3.38;;;15.20;47.50;;;;;;5025686;28;20030;-71
2021/03/13 07:04:09;;;;;;;4.22;2.53;;;15.60;47.20;;;;;;5025779;28;20040;-69
2021/03/13 07:06:47;;;;;;;5.28;2.30;;;16.10;46.30;;;;;;5026253;28;20416;-71
2021/03/13 07:09:12;;;;;;;3.65;2.03;;;16.40;45.20;;;;;;5023483;28;20156;-70
2021/03/13 07:11:38;;;;;;;5.85;2.38;;;16.60;45.10;;;;;;5025724;28;20109;-71
2021/03/13 07:14:04;;;;;;;5.97;1.95;;;16.80;44.50;;;;;;5025794;28;20410;-70
2021/03/13 07:16:32;;;;;;;3.95;2.53;;;17.00;44.00;;;;;;5025566;28;20049;-71
2021/03/13 07:19:01;;;;;;;4.95;2.13;;;16.80;43.10;;;;;;5024754;28;20035;-70
2021/03/13 07:21:29;;;;;;;3.90;2.40;;;16.90;43.60;;;;;;5025687;28;20047;-70
2021/03/13 07:24:03;;;;;;;3.22;1.73;;;17.30;43.00;;;;;;5026224;28;20525;-70
2021/03/13 07:26:46;;;;;;;5.97;2.67;;;17.50;41.90;;;;;;5019433;28;20052;-70
2021/03/13 07:29:17;;;;;;;4.63;1.95;;;17.50;41.80;;;;;;5025368;28;20034;-70
2021/03/13 07:31:52;;;;;;;4.28;2.00;;;17.70;41.40;;;;;;5024663;28;20033;-70
2021/03/13 07:34:19;;;;;;;4.72;1.80;;;17.80;40.40;;;;;;5024637;28;20125;-70
2021/03/13 07:36:56;;;;;;;3.17;1.63;;;18.10;40.20;;;;;;5024506;28;20021;-70
2021/03/13 07:39:23;;;;;;;2.85;1.55;;;17.90;40.60;;;;;;5026263;28;20038;-70
2021/03/13 07:42:00;;;;;;;3.25;1.70;;;17.90;40.60;;;;;;5024432;28;20517;-70
2021/03/13 07:44:26;;;;;;;3.28;1.42;;;18.10;39.70;;;;;;5028581;28;20128;-71
2021/03/13 07:46:52;;;;;;;3.70;1.70;;;17.80;40.20;;;;;;5028091;28;20824;-70
2021/03/13 07:49:19;;;;;;;3.70;1.75;;;17.80;40.70;;;;;;5027731;28;20057;-71
2021/03/13 07:51:45;;;;;;;2.45;1.65;;;18.20;40.00;;;;;;5029343;28;20029;-70
2021/03/13 07:54:12;;;;;;;3.22;1.70;;;18.40;39.20;;;;;;5029323;28;20021;-72
2021/03/13 07:56:41;;;;;;;5.85;1.80;;;18.40;39.30;;;;;;5028530;28;20059;-70
2021/03/13 07:59:33;;;;;;;4.15;2.03;;;18.50;39.10;;;;;;5028738;28;20387;-70
2021/03/13 08:01:58;;;;;;;4.22;2.40;;;18.40;39.20;;;;;;5029030;28;20032;-69
2021/03/13 08:04:42;;;;;;;4.05;1.80;;;17.80;40.40;;;;;;5029158;28;20033;-69
2021/03/13 08:07:09;;;;;;;4.22;1.90;;;17.20;41.80;;;;;;5027849;28;20037;-70
2021/03/13 08:09:44;;;;;;;3.60;1.80;;;16.40;43.50;;;;;;5027841;28;20120;-70
2021/03/13 08:12:11;;;;;;;3.35;1.77;;;16.00;45.00;;;;;;5028755;28;20033;-70
2021/03/13 08:14:37;;;;;;;9.23;2.15;;;15.80;45.80;;;;;;5028822;28;20026;-69
2021/03/13 08:17:07;;;;;;;5.28;1.83;;;15.50;46.80;;;;;;5027503;28;20042;-69
2021/03/13 08:19:44;;;;;;;4.22;1.98;;;15.40;47.40;;;;;;5027628;28;20021;-69
2021/03/13 08:22:18;;;;;;;4.20;1.42;;;15.60;48.30;;;;;;5028884;28;20037;-70
2021/03/13 08:24:47;;;;;;;3.75;2.10;;;16.10;46.70;;;;;;5029317;28;20047;-70
2021/03/13 08:27:14;;;;;;;4.68;2.22;;;16.20;46.20;;;;;;5027779;28;20401;-69
2021/03/13 08:29:48;;;;;;;3.92;2.05;;;15.80;46.40;;;;;;5028479;28;20460;-69
2021/03/13 08:32:14;;;;;;;3.33;1.75;;;15.40;47.60;;;;;;5028787;28;20482;-69
2021/03/13 08:34:41;;;;;;;3.63;2.00;;;14.90;48.80;;;;;;5028354;28;20075;-70
2021/03/13 08:37:22;;;;;;;5.95;1.42;;;14.50;50.50;;;;;;5028507;28;20470;-69
2021/03/13 08:39:48;;;;;;;3.13;1.58;;;14.30;49.80;;;;;;5027423;28;20041;-69
2021/03/13 08:42:32;;;;;;;2.25;1.23;;;14.10;49.40;;;;;;5026251;28;20032;-70
2021/03/13 08:45:14;;;;;;;2.63;1.15;;;14.00;50.90;;;;;;5027019;28;20041;-69
2021/03/13 08:47:48;;;;;;;2.75;1.30;;;14.10;50.90;;;;;;5028368;28;20045;-70
2021/03/13 08:50:51;;;;;;;3.45;1.42;;;14.40;50.80;;;;;;5027749;28;20052;-70
2021/03/13 08:53:33;;;;;;;2.45;1.05;;;14.80;49.90;;;;;;5028286;28;20509;-69
2021/03/13 08:55:59;;;;;;;5.20;1.13;;;15.50;48.50;;;;;;5027647;28;20029;-70
2021/03/13 08:58:39;;;;;;;2.42;1.15;;;16.20;45.80;;;;;;5028226;28;20488;-70
2021/03/13 09:01:22;;;;;;;3.90;1.17;;;16.70;44.60;;;;;;5028160;28;20021;-70
2021/03/13 09:03:52;;;;;;;3.30;1.10;;;16.80;43.70;;;;;;5028169;28;20336;-70
2021/03/13 09:06:22;;;;;;;5.13;1.08;;;17.20;42.50;;;;;;5026570;28;20127;-70
2021/03/13 09:08:48;;;;;;;2.05;1.00;;;17.40;42.30;;;;;;5027640;28;20018;-70
2021/03/13 09:11:26;;;;;;;3.55;1.90;;;17.80;41.50;;;;;;5027902;28;20072;-70
2021/03/13 09:14:01;;;;;;;2.70;1.02;;;18.00;41.40;;;;;;5027696;28;20101;-70
2021/03/13 09:16:32;;;;;;;2.97;1.27;;;18.20;40.40;;;;;;5026134;28;20025;-70
2021/03/13 09:18:58;;;;;;;5.13;1.40;;;18.30;39.80;;;;;;5026164;28;20033;-70
2021/03/13 09:21:46;;;;;;;3.40;1.38;;;18.40;40.00;;;;;;5027489;28;20039;-70
2021/03/13 09:24:17;;;;;;;3.28;1.48;;;18.50;40.10;;;;;;5026403;28;20414;-70
2021/03/13 09:26:48;;;;;;;2.88;1.42;;;18.80;39.10;;;;;;5027172;28;20036;-70
2021/03/13 09:29:13;;;;;;;4.47;2.17;;;18.80;38.80;;;;;;5027535;28;20021;-70
2021/03/13 09:31:39;;;;;;;2.88;1.10;;;18.70;38.30;;;;;;5027653;28;20034;-69
2021/03/13 09:34:20;;;;;;;4.00;1.73;;;18.40;39.40;;;;;;5025887;28;20056;-70
2021/03/13 09:36:47;;;;;;;3.33;1.35;;;18.70;40.00;;;;;;5027595;28;20339;-70
2021/03/13 09:39:20;;;;;;;8.35;1.67;;;18.60;39.30;;;;;;5027024;28;20508;-70
2021/03/13 09:42:08;;;;;;;2.65;1.13;;;18.80;39.10;;;;;;5026923;28;20037;-71
2021/03/13 09:44:40;;;;;;;7.35;1.33;;;19.30;38.40;;;;;;5025702;28;20091;-71
2021/03/13 09:47:13;;;;;;;2.00;1.05;;;19.80;36.70;;;;;;5027215;28;20034;-71
2021/03/13 09:49:39;;;;;;;4.88;1.52;;;20.30;35.00;;;;;;5025701;28;20099;-71
2021/03/13 09:52:05;;;;;;;2.60;1.08;;;20.60;35.50;;;;;;5027113;28;20029;-70
2021/03/13 09:54:31;;;;;;;2.35;1.05;;;20.90;33.70;;;;;;5026009;28;20063;-70
2021/03/13 09:56:56;;;;;;;3.35;1.67;;;20.90;33.90;;;;;;5025358;28;20033;-71
2021/03/13 09:59:22;;;;;;;5.07;1.30;;;20.80;33.50;;;;;;5026841;28;20026;-71
2021/03/13 10:01:48;;;;;;;3.05;1.45;;;21.00;33.20;;;;;;5027184;28;20034;-71
2021/03/13 10:04:14;;;;;;;3.25;1.30;;;21.00;33.00;;;;;;5026537;28;20060;-70
2021/03/13 10:06:42;;;;;;;7.45;1.23;;;21.20;32.10;;;;;;5025429;28;20172;-70
2021/03/13 10:09:11;;;;;;;3.28;1.65;;;21.00;32.70;;;;;;5026477;28;20541;-71
2021/03/13 10:11:43;;;;;;;7.35;1.30;;;21.10;33.10;;;;;;5025078;28;20030;-69
2021/03/13 10:14:19;;;;;;;6.47;1.00;;;21.20;33.30;;;;;;5026629;28;20375;-70
2021/03/13 10:16:45;;;;;;;;;;;21.30;32.80;;;;;;5025817;28;20090;-71
2021/03/13 10:19:40;;;;;;;5.03;1.35;;;21.20;32.10;;;;;;5026688;28;19967;-71
2021/03/13 10:22:23;;;;;;;2.90;0.90;;;20.70;32.30;;;;;;5026822;28;20029;-70
2021/03/13 10:24:54;;;;;;;7.90;1.40;;;19.80;33.90;;;;;;5026128;28;20717;-69
2021/03/13 10:27:21;;;;;;;4.05;1.63;;;19.10;35.10;;;;;;5026718;28;20033;-70
2021/03/13 10:29:56;;;;;;;4.80;2.05;;;18.60;36.40;;;;;;5026727;28;20041;-69
2021/03/13 10:32:27;;;;;;;7.10;1.13;;;18.50;35.80;;;;;;5026107;28;20025;-70
2021/03/13 10:35:19;;;;;;;1.95;0.73;;;18.70;37.70;;;;;;5025160;28;20065;-70
2021/03/13 10:37:46;;;;;;;2.35;1.08;;;19.10;35.70;;;;;;5024808;28;20048;-70
2021/03/13 10:40:31;;;;;;;4.68;1.30;;;19.40;35.20;;;;;;5024635;28;20026;-70
2021/03/13 10:43:22;;;;;;;3.33;1.15;;;19.30;36.40;;;;;;5026309;28;20470;-71
2021/03/13 10:45:57;;;;;;;3.83;0.80;;;18.70;37.10;;;;;;5024892;28;20030;-70
2021/03/13 10:48:27;;;;;;;5.85;1.38;;;18.20;37.20;;;;;;5024828;28;20125;-70
2021/03/13 10:50:55;;;;;;;2.38;1.08;;;17.60;38.50;;;;;;5024531;28;20572;-70
2021/03/13 10:53:30;;;;;;;2.85;1.15;;;17.20;39.50;;;;;;5026085;28;20049;-70
2021/03/13 10:55:58;;;;;;;1.92;0.98;;;16.90;40.60;;;;;;5025613;28;20049;-70
2021/03/13 10:58:35;;;;;;;5.80;1.08;;;16.70;40.40;;;;;;5026371;28;20064;-70
2021/03/13 11:01:03;;;;;;;2.33;1.10;;;16.70;40.70;;;;;;5025905;28;20017;-70
2021/03/13 11:03:29;;;;;;;3.95;1.05;;;16.50;40.20;;;;;;5024878;28;20881;-69
2021/03/13 11:05:56;;;;;;;2.45;0.95;;;16.30;41.20;;;;;;5026237;28;20033;-70
2021/03/13 11:08:24;;;;;;;6.28;1.00;;;16.10;41.00;;;;;;5026128;28;20494;-70
2021/03/13 11:10:50;;;;;;;7.45;0.90;;;15.90;41.60;;;;;;5023898;28;20033;-69
2021/03/13 11:13:18;;;;;;;3.88;1.17;;;15.90;41.70;;;;;;5026293;28;20097;-70
2021/03/13 11:15:44;;;;;;;5.18;1.02;;;15.80;41.40;;;;;;5026278;28;20051;-70
2021/03/13 11:18:10;;;;;;;6.75;1.38;;;15.90;41.90;;;;;;5028570;28;20557;-70
2021/03/13 11:20:36;;;;;;;;;;;16.00;40.50;;;;;;5028723;28;20083;-69
2021/03/13 11:23:02;;;;;;;3.57;0.97;;;16.10;40.00;;;;;;5029897;28;19909;-70
2021/03/13 11:25:28;;;;;;;2.00;0.90;;;16.20;40.70;;;;;;5027847;28;20271;-68
2021/03/13 11:27:54;;;;;;;5.85;1.00;;;16.10;40.00;;;;;;5028821;28;20041;-71
2021/03/13 11:30:20;;;;;;;9.05;1.15;;;16.20;40.70;;;;;;5029470;28;20025;-71
2021/03/13 11:32:46;;;;;;;3.55;0.80;;;16.30;39.20;;;;;;5029866;28;20517;-70
2021/03/13 11:35:12;;;;;;;4.50;1.00;;;16.30;39.20;;;;;;5029485;28;20025;-69
2021/03/13 11:37:38;;;;;;;3.63;0.77;;;16.40;39.00;;;;;;5029643;28;20061;-70
2021/03/13 11:40:06;;;;;;;4.15;0.90;;;16.30;38.90;;;;;;5028115;28;20026;-71
2021/03/13 11:42:32;;;;;;;2.75;0.82;;;16.30;38.40;;;;;;5029344;28;20482;-70
2021/03/13 11:44:58;;;;;;;3.55;0.70;;;16.10;39.10;;;;;;5028859;28;20026;-70
2021/03/13 11:47:25;;;;;;;6.75;1.08;;;16.00;38.60;;;;;;5027896;28;20341;-70
2021/03/13 11:49:52;;;;;;;3.25;0.80;;;16.00;38.90;;;;;;5027887;28;20164;-70
2021/03/13 11:52:18;;;;;;;3.72;0.90;;;15.90;38.00;;;;;;5029486;28;20482;-69
2021/03/13 11:54:48;;;;;;;3.88;0.50;;;15.90;38.60;;;;;;5028762;28;20116;-71
2021/03/13 11:57:14;;;;;;;6.00;1.25;;;15.70;36.70;;;;;;5027402;28;20078;-70
2021/03/13 11:59:41;;;;;;;7.47;1.00;;;15.50;37.70;;;;;;5029278;28;20021;-70
2021/03/13 12:02:06;;;;;;;1.70;0.47;;;15.50;39.20;;;;;;5028879;28;20025;-70
2021/03/13 12:04:32;;;;;;;;;;;15.50;38.20;;;;;;5029383;28;20036;-71
2021/03/13 12:06:57;;;;;;;4.28;0.93;;;15.30;38.20;;;;;;5028970;28;20006;-69
2021/03/13 12:09:23;;;;;;;;;;;15.30;39.00;;;;;;5028941;28;20033;-70
2021/03/13 12:11:49;;;;;;;7.07;1.67;;;15.20;39.20;;;;;;5027724;28;20400;-69
2021/03/13 12:14:14;;;;;;;5.80;0.77;;;15.20;39.80;;;;;;5028550;28;20033;-69
2021/03/13 12:16:40;;;;;;;;;;;15.20;40.00;;;;;;5029509;28;20234;-69
2021/03/13 12:19:06;;;;;;;8.10;1.00;;;15.20;40.10;;;;;;5027785;28;20316;-70
2021/03/13 12:21:31;;;;;;;5.05;0.68;;;15.20;39.80;;;;;;5028596;28;20025;-69
2021/03/13 12:23:57;;;;;;;5.07;0.88;;;15.00;38.50;;;;;;5028432;28;20025;-70
2021/03/13 12:26:23;;;;;;;;;;;15.10;39.10;;;;;;5029222;28;20034;-69
2021/03/13 12:28:48;;;;;;;2.65;0.60;;;15.40;36.90;;;;;;5028367;28;19909;-70
2021/03/13 12:31:14;;;;;;;;;;;15.30;37.20;;;;;;5028703;28;20017;-70
2021/03/13 12:33:40;;;;;;;2.13;0.70;;;15.10;38.50;;;;;;5028854;28;20289;-69
2021/03/13 12:36:06;;;;;;;;;;;14.90;37.90;;;;;;5027503;28;20029;-70
2021/03/13 12:38:32;;;;;;;4.40;0.90;;;14.70;38.20;;;;;;5028213;28;20531;-73
2021/03/13 12:40:57;;;;;;;;;;;14.80;38.90;;;;;;5027382;28;20065;-70
2021/03/13 12:43:23;;;;;;;;;;;14.80;39.40;;;;;;5028768;28;19971;-69
2021/03/13 12:45:48;;;;;;;;;;;14.70;38.10;;;;;;5027017;28;19909;-69
2021/03/13 12:48:14;;;;;;;;;;;14.70;38.70;;;;;;5028710;28;20370;-70
2021/03/13 12:50:39;;;;;;;;;;;14.70;38.20;;;;;;5028449;28;20424;-70
2021/03/13 12:53:05;;;;;;;;;;;14.70;38.60;;;;;;5028618;28;20404;-69
2021/03/13 12:55:31;;;;;;;;;;;14.70;38.60;;;;;;5028193;28;19905;-69
2021/03/13 12:57:56;;;;;;;;;;;14.80;38.00;;;;;;5028812;28;20000;-69
2021/03/13 13:00:22;;;;;;;;;;;14.90;38.20;;;;;;5026947;28;20302;-69
2021/03/13 13:02:47;;;;;;;;;;;14.90;38.20;;;;;;5028556;28;20000;-70
2021/03/13 13:05:13;;;;;;;;;;;15.10;38.80;;;;;;5027154;28;19912;-70
2021/03/13 13:07:45;;;;;;;;;;;15.30;38.30;;;;;;5028139;28;20393;-69
2021/03/13 13:10:12;;;;;;;;;;;15.70;36.70;;;;;;5028019;28;19909;-68
2021/03/13 13:12:38;;;;;;;;;;;15.80;36.50;;;;;;5028093;28;19955;-69